createdAt,value
2023-04-20T00:02:48.701Z,10.30
2023-04-20T00:05:54.713Z,10.29
2023-04-20T00:08:59.304Z,10.26
2023-04-20T00:12:07.894Z,10.26
2023-04-20T00:15:13.696Z,10.22
2023-04-20T00:18:18.734Z,10.20
2023-04-20T00:21:26.824Z,10.18
2023-04-20T00:24:42.626Z,10.20
2023-04-20T00:27:48.159Z,10.25
2023-04-20T00:30:53.695Z,10.29
2023-04-20T00:34:00.489Z,10.28
2023-04-20T00:37:04.453Z,10.25
2023-04-20T00:40:10.132Z,10.19
2023-04-20T00:43:15.557Z,10.16
2023-04-20T00:46:23.302Z,10.19
2023-04-20T00:49:31.743Z,10.21
2023-04-20T00:52:39.725Z,10.15
2023-04-20T00:55:50.683Z,10.13
2023-04-20T00:59:03.786Z,10.11
2023-04-20T01:02:12.436Z,10.11
2023-04-20T01:05:20.831Z,10.06
2023-04-20T01:08:30.560Z,10.10
2023-04-20T01:11:37.879Z,10.06
2023-04-20T01:14:56.350Z,10.06
2023-04-20T01:18:03.120Z,10.10
2023-04-20T01:21:14.879Z,10.02
2023-04-20T01:24:20.085Z,9.98
2023-04-20T01:27:30.542Z,9.94
2023-04-20T01:30:39.448Z,10.07
2023-04-20T01:33:45.371Z,9.96
2023-04-20T01:36:49.350Z,9.97
2023-04-20T01:39:53.954Z,9.92
2023-04-20T01:42:57.552Z,9.90
2023-04-20T01:46:01.600Z,9.98
2023-04-20T01:49:05.335Z,9.90
2023-04-20T01:52:09.581Z,9.82
2023-04-20T01:55:14.560Z,9.85
2023-04-20T01:58:18.066Z,9.83
2023-04-20T02:01:21.585Z,9.86
2023-04-20T02:04:26.065Z,9.77
2023-04-20T02:07:31.241Z,9.76
2023-04-20T02:10:37.127Z,9.81
2023-04-20T02:13:41.937Z,9.81
2023-04-20T02:16:46.243Z,9.77
2023-04-20T02:19:49.409Z,9.77
2023-04-20T02:22:52.588Z,9.72
2023-04-20T02:25:55.914Z,9.69
2023-04-20T02:29:00.381Z,9.68
2023-04-20T02:32:08.569Z,9.69
2023-04-20T02:35:14.525Z,9.69
2023-04-20T02:38:19.631Z,9.76
2023-04-20T02:41:25.368Z,9.80
2023-04-20T02:44:30.491Z,9.82
2023-04-20T02:47:35.414Z,9.84
2023-04-20T02:50:42.272Z,9.90
2023-04-20T02:54:00.197Z,9.85
2023-04-20T02:57:09.616Z,9.90
2023-04-20T03:00:19.331Z,9.81
2023-04-20T03:03:39.426Z,9.76
2023-04-20T03:06:55.037Z,9.83
2023-04-20T03:10:04.989Z,9.78
2023-04-20T03:13:22.164Z,9.76
2023-04-20T03:16:40.936Z,9.74
2023-04-20T03:19:46.790Z,9.77
2023-04-20T03:22:56.693Z,9.72
2023-04-20T03:26:05.998Z,9.78
2023-04-20T03:29:30.983Z,9.76
2023-04-20T03:32:35.514Z,9.54
2023-04-20T03:35:44.355Z,9.48
2023-04-20T03:38:47.883Z,9.41
2023-04-20T03:41:51.463Z,9.37
2023-04-20T03:44:57.613Z,9.23
2023-04-20T03:48:02.084Z,9.19
2023-04-20T03:51:05.802Z,9.16
2023-04-20T03:54:08.882Z,9.20
2023-04-20T03:57:12.756Z,9.09
2023-04-20T04:00:17.465Z,9.08
2023-04-20T04:03:23.214Z,9.04
2023-04-20T04:06:27.538Z,9.01
2023-04-20T04:09:31.092Z,9.00
2023-04-20T04:12:34.196Z,8.95
2023-04-20T04:15:38.070Z,8.98
2023-04-20T04:18:48.504Z,8.94
2023-04-20T04:21:53.434Z,9.00
2023-04-20T04:25:02.965Z,9.05
2023-04-20T04:28:08.068Z,9.10
2023-04-20T04:31:14.335Z,9.07
2023-04-20T04:34:18.620Z,9.14
2023-04-20T04:37:27.327Z,9.14
2023-04-20T04:40:33.807Z,9.26
2023-04-20T04:43:39.990Z,9.34
2023-04-20T04:46:51.797Z,9.46
2023-04-20T04:49:56.737Z,9.60
2023-04-20T04:52:59.900Z,9.62
2023-04-20T04:56:03.172Z,9.62
2023-04-20T04:59:07.440Z,9.61
2023-04-20T05:02:12.415Z,9.63
2023-04-20T05:05:16.875Z,9.65
2023-04-20T05:08:22.393Z,9.76
2023-04-20T05:11:29.819Z,9.86
2023-04-20T05:14:37.791Z,10.08
2023-04-20T05:18:05.808Z,10.28
2023-04-20T05:21:13.104Z,10.46
2023-04-20T05:24:19.464Z,10.58
2023-04-20T05:27:24.883Z,10.70
2023-04-20T05:30:39.739Z,10.72
2023-04-20T05:33:48.340Z,10.86
2023-04-20T05:38:05.617Z,10.96
2023-04-20T05:41:42.465Z,11.15
2023-04-20T07:12:57.148Z,13.61
2023-04-20T07:16:17.688Z,13.67
2023-04-20T07:19:50.773Z,13.74
2023-04-20T07:29:00.978Z,14.39
2023-04-20T07:37:53.177Z,14.70
2023-04-20T08:00:24.163Z,15.11
2023-04-20T08:03:44.086Z,14.98
2023-04-20T08:07:36.032Z,15.19
2023-04-20T08:14:29.890Z,14.64
2023-04-20T08:17:46.102Z,14.93
2023-04-20T08:20:55.473Z,15.06
2023-04-20T08:24:22.578Z,15.14
2023-04-20T08:28:39.136Z,15.05
2023-04-20T08:31:51.577Z,15.29
2023-04-20T08:35:07.291Z,15.63
2023-04-20T08:44:08.436Z,15.70
2023-04-20T08:47:44.983Z,15.53
2023-04-20T08:51:49.115Z,15.49
2023-04-20T08:55:04.798Z,15.83
2023-04-20T09:02:34.659Z,15.76
2023-04-20T09:06:23.235Z,15.56
2023-04-20T09:09:43.596Z,15.50
2023-04-20T09:13:08.191Z,15.96
2023-04-20T09:16:21.490Z,15.99
2023-04-20T09:19:31.140Z,16.44
2023-04-20T09:23:14.222Z,16.73
2023-04-20T09:26:37.735Z,16.25
2023-04-20T09:29:42.036Z,16.27
2023-04-20T09:38:53.664Z,16.39
2023-04-20T09:43:25.512Z,16.42
2023-04-20T09:46:54.105Z,16.62
2023-04-20T09:50:04.410Z,16.58
2023-04-20T09:53:18.929Z,16.43
2023-04-20T09:56:29.685Z,16.40
2023-04-20T09:59:36.666Z,16.34
2023-04-20T10:02:50.075Z,16.40
2023-04-20T10:05:57.043Z,16.47
2023-04-20T10:09:20.312Z,16.62
2023-04-20T10:12:29.470Z,17.15
2023-04-20T10:15:49.452Z,16.90
2023-04-20T10:19:05.760Z,17.10
2023-04-20T10:22:28.152Z,16.92
2023-04-20T10:25:34.621Z,17.38
2023-04-20T10:28:45.364Z,16.83
2023-04-20T10:31:49.266Z,17.04
2023-04-20T10:35:30.491Z,17.53
2023-04-20T10:38:44.593Z,17.47
2023-04-20T10:41:56.481Z,18.82
2023-04-20T10:44:59.882Z,17.96
2023-04-20T10:48:10.576Z,17.86
2023-04-20T10:51:18.103Z,17.66
2023-04-20T10:54:25.930Z,17.53
2023-04-20T10:57:34.754Z,18.71
2023-04-20T11:01:01.506Z,18.55
2023-04-20T11:04:39.174Z,19.65
2023-04-20T11:08:01.386Z,19.13
2023-04-20T11:11:30.756Z,19.42
2023-04-20T11:19:32.849Z,19.90
2023-04-20T11:23:12.121Z,18.55
2023-04-20T11:26:46.841Z,19.16
2023-04-20T11:30:46.524Z,20.09
2023-04-20T11:34:00.734Z,18.84
2023-04-20T11:37:22.648Z,20.33
2023-04-20T11:40:52.835Z,19.23
2023-04-20T11:44:10.887Z,18.71
2023-04-20T11:47:22.485Z,18.61
2023-04-20T11:50:41.025Z,19.34
2023-04-20T11:54:08.488Z,18.53
2023-04-20T11:57:35.068Z,18.12
2023-04-20T12:00:51.862Z,17.70
2023-04-20T12:08:54.993Z,17.66
2023-04-20T12:12:02.889Z,18.40
2023-04-20T12:15:08.402Z,21.19
2023-04-20T12:18:26.816Z,20.89
2023-04-20T12:21:48.921Z,19.79
2023-04-20T12:25:33.666Z,18.29
2023-04-20T12:28:37.737Z,17.72
2023-04-20T12:31:46.291Z,18.99
2023-04-20T12:35:16.212Z,20.39
2023-04-20T12:38:34.457Z,20.10
2023-04-20T12:41:43.389Z,19.88
2023-04-20T12:45:08.644Z,18.84
2023-04-20T12:48:25.366Z,18.51
2023-04-20T12:51:35.261Z,18.19
2023-04-20T12:54:46.812Z,17.62
2023-04-20T12:57:55.834Z,17.45
2023-04-20T13:01:27.259Z,17.58
2023-04-20T13:04:38.513Z,17.56
2023-04-20T13:07:58.265Z,17.56
2023-04-20T13:11:16.734Z,17.72
2023-04-20T13:14:57.437Z,17.56
2023-04-20T13:18:19.014Z,17.22
2023-04-20T13:21:26.196Z,17.00
2023-04-20T13:24:46.272Z,16.97
2023-04-20T13:28:06.376Z,16.97
2023-04-20T13:31:22.057Z,16.89
2023-04-20T13:34:46.327Z,16.88
2023-04-20T13:38:16.025Z,16.96
2023-04-20T13:41:20.213Z,17.08
2023-04-20T13:44:24.616Z,17.16
2023-04-20T13:47:37.406Z,17.20
2023-04-20T13:50:44.193Z,17.16
2023-04-20T13:53:55.656Z,17.19
2023-04-20T13:56:59.546Z,17.25
2023-04-20T14:00:07.800Z,17.23
2023-04-20T14:03:21.108Z,17.25
2023-04-20T14:06:53.816Z,17.33
2023-04-20T14:10:02.611Z,17.44
2023-04-20T14:13:07.316Z,17.36
2023-04-20T14:16:17.375Z,17.32
2023-04-20T14:19:35.323Z,17.25
2023-04-20T14:22:47.422Z,17.36
2023-04-20T14:33:41.886Z,17.87
2023-04-20T14:36:46.354Z,18.12
2023-04-20T14:39:53.348Z,18.04
2023-04-20T14:42:57.551Z,17.81
2023-04-20T14:46:15.109Z,17.78
2023-04-20T14:49:26.871Z,17.94
2023-04-20T14:52:34.280Z,17.98
2023-04-20T14:55:39.606Z,18.06
2023-04-20T14:58:43.910Z,17.94
2023-04-20T15:02:01.251Z,17.82
2023-04-20T15:05:09.893Z,17.81
2023-04-20T15:08:15.055Z,17.77
2023-04-20T15:11:21.280Z,17.97
2023-04-20T15:14:33.880Z,17.88
2023-04-20T15:17:46.216Z,17.82
2023-04-20T15:20:51.832Z,17.75
2023-04-20T15:23:55.271Z,17.72
2023-04-20T15:26:59.047Z,17.58
2023-04-20T15:30:06.544Z,17.51
2023-04-20T15:33:18.266Z,17.45
2023-04-20T15:36:29.577Z,17.36
2023-04-20T15:39:33.726Z,17.38
2023-04-20T15:42:37.107Z,17.42
2023-04-20T15:45:41.289Z,17.46
2023-04-20T15:48:46.418Z,17.45
2023-04-20T15:51:50.119Z,17.50
2023-04-20T15:54:53.550Z,17.55
2023-04-20T15:58:00.766Z,17.55
2023-04-20T16:01:07.614Z,17.65
2023-04-20T16:04:11.938Z,17.65
2023-04-20T16:07:18.439Z,17.73
2023-04-20T16:10:28.395Z,17.60
2023-04-20T16:13:32.147Z,17.56
2023-04-20T16:16:36.556Z,17.47
2023-04-20T16:19:40.566Z,17.52
2023-04-20T16:22:47.566Z,17.50
2023-04-20T16:25:52.235Z,17.46
2023-04-20T16:28:56.259Z,17.35
2023-04-20T16:32:00.643Z,17.20
2023-04-20T16:35:06.902Z,17.08
2023-04-20T16:38:11.602Z,16.90
2023-04-20T16:41:29.722Z,16.75
2023-04-20T16:44:41.666Z,16.64
2023-04-20T16:47:50.631Z,16.55
2023-04-20T16:51:26.432Z,16.40
2023-04-20T16:54:31.061Z,16.30
2023-04-20T16:57:34.941Z,16.32
2023-04-20T17:00:38.941Z,16.23
2023-04-20T17:03:46.344Z,16.13
2023-04-20T17:06:53.089Z,15.91
2023-04-20T17:09:59.617Z,15.60
2023-04-20T17:13:03.523Z,15.50
2023-04-20T17:16:10.527Z,15.36
2023-04-20T17:19:14.658Z,15.18
2023-04-20T17:22:19.289Z,15.02
2023-04-20T17:25:22.845Z,14.87
2023-04-20T17:28:26.946Z,14.78
2023-04-20T17:31:33.750Z,14.76
2023-04-20T17:34:38.036Z,14.77
2023-04-20T17:37:42.543Z,15.01
2023-04-20T17:40:49.695Z,15.01
2023-04-20T17:44:09.617Z,14.94
2023-04-20T17:47:20.643Z,14.86
2023-04-20T17:50:27.374Z,14.80
2023-04-20T17:53:35.083Z,14.75
2023-04-20T17:56:48.287Z,14.75
2023-04-20T17:59:56.592Z,15.02
2023-04-20T18:03:01.716Z,15.03
2023-04-20T18:06:11.926Z,15.01
2023-04-20T18:09:19.110Z,15.02
2023-04-20T18:12:24.103Z,14.97
2023-04-20T18:15:48.933Z,15.03
2023-04-20T18:18:58.282Z,14.94
2023-04-20T18:22:07.591Z,14.85
2023-04-20T18:25:19.310Z,14.74
2023-04-20T18:28:31.412Z,14.63
2023-04-20T18:31:36.934Z,14.56
2023-04-20T18:34:40.366Z,14.46
2023-04-20T18:37:43.738Z,14.49
2023-04-20T18:40:47.326Z,14.41
2023-04-20T18:43:54.014Z,14.23
2023-04-20T18:46:58.314Z,14.15
2023-04-20T18:50:02.085Z,14.09
2023-04-20T18:53:08.357Z,13.99
2023-04-20T18:56:11.913Z,14.05
2023-04-20T18:59:25.439Z,14.11
2023-04-20T19:02:30.196Z,14.20
2023-04-20T19:05:38.945Z,14.20
2023-04-20T19:08:46.211Z,14.27
2023-04-20T19:11:51.330Z,14.26
2023-04-20T19:14:55.941Z,14.08
2023-04-20T19:18:00.543Z,13.88
2023-04-20T19:21:05.666Z,13.70
2023-04-20T19:24:09.973Z,13.68
2023-04-20T19:27:14.189Z,13.55
2023-04-20T19:30:18.678Z,13.39
2023-04-20T19:33:23.400Z,13.25
2023-04-20T19:36:30.358Z,13.17
2023-04-20T19:39:37.120Z,13.17
2023-04-20T19:42:42.854Z,13.18
2023-04-20T19:45:47.321Z,13.19
2023-04-20T19:48:55.863Z,13.24
2023-04-20T19:52:06.818Z,13.31
2023-04-20T19:55:14.394Z,13.38
2023-04-20T19:58:21.176Z,13.48
2023-04-20T20:01:28.728Z,13.44
2023-04-20T20:04:33.135Z,13.30
2023-04-20T20:07:37.397Z,13.35
2023-04-20T20:10:41.802Z,13.42
2023-04-20T20:13:49.629Z,13.48
2023-04-20T20:16:53.248Z,13.36
2023-04-20T20:19:57.019Z,13.45
2023-04-20T20:23:01.201Z,13.48
2023-04-20T20:26:04.644Z,13.41
2023-04-20T20:29:07.863Z,13.37
2023-04-20T20:32:11.141Z,13.36
2023-04-20T20:35:14.412Z,13.34
2023-04-20T20:38:18.042Z,13.30
2023-04-20T20:41:21.693Z,13.27
2023-04-20T20:44:25.590Z,13.28
2023-04-20T20:47:31.108Z,13.29
2023-04-20T20:50:34.424Z,13.32
2023-04-20T20:53:37.563Z,13.33
2023-04-20T20:56:40.856Z,13.38
2023-04-20T20:59:44.037Z,13.45
2023-04-20T21:02:47.761Z,13.40
2023-04-20T21:05:50.892Z,13.38
2023-04-20T21:08:54.986Z,13.44
2023-04-20T21:11:57.986Z,13.38
2023-04-20T21:15:01.138Z,13.30
2023-04-20T21:18:04.257Z,13.24
2023-04-20T21:21:12.573Z,13.18
2023-04-20T21:24:15.979Z,13.14
2023-04-20T21:27:19.263Z,13.05
2023-04-20T21:30:22.437Z,13.00
2023-04-20T21:33:25.865Z,12.89
2023-04-20T21:36:29.167Z,12.78
2023-04-20T21:39:32.898Z,12.74
2023-04-20T21:42:36.168Z,12.75
2023-04-20T21:45:39.260Z,12.67
2023-04-20T21:48:43.042Z,12.64
2023-04-20T21:51:46.800Z,12.51
2023-04-20T21:54:49.910Z,12.35
2023-04-20T21:57:52.980Z,12.14
2023-04-20T22:00:56.362Z,12.10
2023-04-20T22:03:59.245Z,11.93
2023-04-20T22:07:02.618Z,11.83
2023-04-20T22:10:07.202Z,11.70
2023-04-20T22:13:10.356Z,11.95
2023-04-20T22:16:13.442Z,11.99
2023-04-20T22:19:16.799Z,11.97
2023-04-20T22:22:19.888Z,12.13
2023-04-20T22:25:24.955Z,12.28
2023-04-20T22:28:28.345Z,12.66
2023-04-20T22:31:31.886Z,12.94
2023-04-20T22:34:35.029Z,12.89
2023-04-20T22:37:38.205Z,12.86
2023-04-20T22:40:44.670Z,12.82
2023-04-20T22:43:48.179Z,12.74
2023-04-20T22:46:52.570Z,12.74
2023-04-20T22:49:56.521Z,12.79
2023-04-20T22:53:00.127Z,12.79
2023-04-20T22:56:12.703Z,12.70
2023-04-20T22:59:16.963Z,12.67
2023-04-20T23:02:23.961Z,12.58
2023-04-20T23:05:27.702Z,12.45
2023-04-20T23:08:34.958Z,12.36
2023-04-20T23:11:43.934Z,12.26
2023-04-20T23:14:47.681Z,12.20
2023-04-20T23:17:51.059Z,12.26
2023-04-20T23:20:54.390Z,12.29
2023-04-20T23:23:58.079Z,12.34
2023-04-20T23:27:02.217Z,12.32
2023-04-20T23:30:07.215Z,12.26
2023-04-20T23:33:11.083Z,12.09
2023-04-20T23:36:14.917Z,12.18
2023-04-20T23:39:19.308Z,12.15
2023-04-20T23:42:24.840Z,12.09
2023-04-20T23:45:28.495Z,12.11
2023-04-20T23:48:32.245Z,11.97
2023-04-20T23:51:36.106Z,11.93
2023-04-20T23:54:39.779Z,11.72
2023-04-20T23:57:43.825Z,11.65
